createdAt,value
2023-05-20T00:01:15.955Z,11.05
2023-05-20T00:05:21.062Z,11.00
2023-05-20T00:09:26.132Z,7.88
2023-05-20T00:13:31.127Z,10.02
2023-05-20T00:17:35.803Z,6.97
2023-05-20T00:21:38.911Z,8.13
2023-05-20T00:25:43.753Z,13.52
2023-05-20T00:29:47.012Z,8.60
2023-05-20T00:33:51.355Z,13.65
2023-05-20T00:37:56.953Z,15.73
2023-05-20T00:42:03.673Z,10.32
2023-05-20T00:46:07.731Z,11.38
2023-05-20T00:50:13.200Z,10.63
2023-05-20T00:54:16.996Z,12.95
2023-05-20T00:58:22.533Z,10.63
2023-05-20T01:02:26.905Z,12.30
2023-05-20T01:06:30.841Z,9.98
2023-05-20T01:10:38.734Z,10.27
2023-05-20T01:14:50.883Z,13.68
2023-05-20T01:19:00.055Z,13.60
2023-05-20T01:23:07.459Z,13.68
2023-05-20T01:27:12.217Z,11.98
2023-05-20T01:31:20.864Z,12.43
2023-05-20T01:35:24.557Z,16.40
2023-05-20T01:39:30.188Z,16.95
2023-05-20T01:43:33.821Z,11.25
2023-05-20T01:47:37.237Z,15.95
2023-05-20T01:51:41.758Z,9.77
2023-05-20T01:55:46.325Z,15.10
2023-05-20T01:59:49.814Z,14.52
2023-05-20T02:03:53.333Z,14.63
2023-05-20T02:07:56.872Z,21.25
2023-05-20T02:12:01.512Z,18.08
2023-05-20T02:16:05.400Z,17.15
2023-05-20T02:20:10.535Z,19.98
2023-05-20T02:24:13.924Z,24.08
2023-05-20T02:28:21.655Z,17.55
2023-05-20T02:32:28.413Z,19.85
2023-05-20T02:36:32.724Z,19.45
2023-05-20T02:40:36.249Z,17.15
2023-05-20T02:44:42.193Z,20.75
2023-05-20T02:48:45.591Z,19.83
2023-05-20T02:52:48.848Z,17.67
2023-05-20T02:56:52.397Z,19.63
2023-05-20T03:00:58.052Z,20.75
2023-05-20T03:05:01.295Z,18.45
2023-05-20T03:09:05.333Z,26.13
2023-05-20T03:13:11.742Z,20.48
2023-05-20T03:17:16.215Z,25.35
2023-05-20T03:21:19.544Z,16.80
2023-05-20T03:25:24.396Z,26.88
2023-05-20T03:29:27.671Z,28.00
2023-05-20T03:33:33.894Z,30.40
2023-05-20T03:37:39.034Z,23.42
2023-05-20T03:41:43.893Z,28.35
2023-05-20T03:45:47.498Z,23.52
2023-05-20T03:49:52.636Z,28.48
2023-05-20T03:53:56.433Z,28.45
2023-05-20T03:57:59.505Z,28.90
2023-05-20T04:02:02.690Z,38.22
2023-05-20T04:06:07.560Z,32.03
2023-05-20T04:10:12.500Z,28.88
2023-05-20T04:14:17.148Z,32.17
2023-05-20T04:18:20.797Z,28.73
2023-05-20T04:22:25.494Z,31.70
2023-05-20T04:26:29.114Z,33.65
2023-05-20T04:30:36.312Z,31.25
2023-05-20T04:34:41.430Z,31.50
2023-05-20T04:38:47.164Z,28.55
2023-05-20T04:42:51.491Z,25.95
2023-05-20T04:46:54.707Z,39.80
2023-05-20T04:50:58.923Z,26.58
2023-05-20T04:55:05.249Z,26.67
2023-05-20T04:59:10.340Z,30.20
2023-05-20T05:03:14.115Z,24.02
2023-05-20T05:07:17.395Z,28.55
2023-05-20T05:11:23.866Z,29.42
2023-05-20T05:15:27.518Z,30.75
2023-05-20T05:19:32.485Z,28.38
2023-05-20T05:23:36.101Z,27.98
2023-05-20T05:27:41.458Z,31.80
2023-05-20T05:31:44.603Z,26.25
2023-05-20T05:35:47.749Z,28.90
2023-05-20T05:39:51.404Z,31.65
2023-05-20T05:43:57.609Z,28.02
2023-05-20T05:48:01.241Z,25.70
2023-05-20T05:52:04.571Z,24.35
2023-05-20T05:56:08.751Z,26.30
2023-05-20T06:00:18.439Z,28.33
2023-05-20T06:04:24.694Z,30.88
2023-05-20T06:08:29.634Z,29.30
2023-05-20T06:12:32.990Z,29.15
2023-05-20T06:16:38.093Z,32.08
2023-05-20T06:20:41.989Z,29.27
2023-05-20T06:24:45.124Z,27.27
2023-05-20T06:28:48.711Z,24.17
2023-05-20T06:32:53.663Z,26.05
2023-05-20T06:36:57.174Z,27.17
2023-05-20T06:41:00.530Z,22.85
2023-05-20T06:45:04.083Z,25.15
2023-05-20T06:49:08.592Z,27.08
2023-05-20T06:53:13.191Z,23.77
2023-05-20T06:57:19.285Z,24.67
2023-05-20T07:01:23.223Z,24.17
2023-05-20T07:05:29.048Z,27.65
2023-05-20T07:09:34.384Z,25.35
2023-05-20T07:13:39.625Z,25.80
2023-05-20T07:17:42.884Z,23.55
2023-05-20T07:21:48.109Z,25.85
2023-05-20T07:25:52.163Z,24.38
2023-05-20T07:29:55.475Z,19.73
2023-05-20T07:33:59.634Z,21.00
2023-05-20T07:38:04.535Z,18.42
2023-05-20T07:42:08.366Z,17.98
2023-05-20T07:46:16.115Z,20.10
2023-05-20T07:50:20.498Z,18.92
2023-05-20T07:54:29.788Z,19.77
2023-05-20T07:58:35.751Z,21.80
2023-05-20T08:02:39.177Z,18.73
2023-05-20T08:06:45.430Z,17.42
2023-05-20T08:10:50.690Z,17.30
2023-05-20T08:14:59.700Z,16.25
2023-05-20T08:19:05.435Z,18.52
2023-05-20T08:23:08.985Z,19.63
2023-05-20T08:27:13.622Z,16.90
2023-05-20T08:31:18.568Z,16.15
2023-05-20T08:35:24.504Z,16.13
2023-05-20T08:39:28.669Z,14.75
2023-05-20T08:43:33.653Z,16.38
2023-05-20T08:47:37.539Z,14.05
2023-05-20T08:51:43.541Z,15.18
2023-05-20T08:55:50.552Z,11.77
2023-05-20T08:59:55.162Z,11.15
2023-05-20T09:03:59.440Z,11.65
2023-05-20T09:08:13.929Z,9.80
2023-05-20T09:12:17.462Z,9.48
2023-05-20T09:16:22.349Z,7.30
2023-05-20T09:20:26.839Z,11.13
2023-05-20T09:24:30.825Z,8.45
2023-05-20T09:28:36.559Z,13.45
2023-05-20T09:32:41.484Z,5.30
2023-05-20T09:36:45.901Z,7.13
2023-05-20T09:40:52.400Z,7.13
2023-05-20T09:45:00.497Z,8.18
2023-05-20T09:49:06.934Z,7.65
2023-05-20T09:53:12.635Z,10.73
2023-05-20T09:57:16.208Z,9.38
2023-05-20T10:01:19.357Z,8.52
2023-05-20T10:05:29.241Z,9.32
2023-05-20T10:09:47.664Z,14.30
2023-05-20T10:14:12.339Z,8.25
2023-05-20T10:18:28.926Z,12.70
2023-05-20T10:22:34.191Z,7.90
2023-05-20T10:26:40.175Z,8.40
2023-05-20T10:30:51.797Z,9.93
2023-05-20T10:34:59.956Z,9.10
2023-05-20T10:39:06.398Z,9.75
2023-05-20T10:43:15.082Z,9.02
2023-05-20T10:47:25.533Z,9.10
2023-05-20T10:51:32.399Z,7.45
2023-05-20T10:55:41.965Z,10.48
2023-05-20T10:59:45.817Z,12.48
2023-05-20T11:03:51.392Z,9.38
2023-05-20T11:08:04.441Z,9.88
2023-05-20T11:12:15.682Z,12.68
2023-05-20T11:16:22.799Z,6.57
2023-05-20T11:20:27.772Z,11.25
2023-05-20T11:24:31.190Z,7.65
2023-05-20T11:28:37.103Z,6.82
2023-05-20T11:32:40.412Z,6.18
2023-05-20T11:40:54.817Z,10.30
2023-05-20T11:45:01.414Z,7.43
2023-05-20T11:49:05.085Z,13.23
2023-05-20T11:53:09.525Z,8.52
2023-05-20T11:57:12.945Z,11.60
2023-05-20T12:01:22.914Z,9.57
2023-05-20T12:05:29.746Z,7.45
2023-05-20T12:09:33.581Z,7.10
2023-05-20T12:13:36.773Z,6.82
2023-05-20T12:17:49.817Z,12.57
2023-05-20T12:21:54.102Z,4.57
2023-05-20T12:25:57.458Z,5.97
2023-05-20T12:30:00.745Z,7.07
2023-05-20T12:34:05.756Z,6.25
2023-05-20T12:38:09.597Z,7.32
2023-05-20T12:42:12.820Z,8.05
2023-05-20T12:46:16.493Z,6.40
2023-05-20T12:50:21.459Z,6.30
2023-05-20T12:54:28.589Z,9.50
2023-05-20T12:58:32.173Z,10.27
2023-05-20T13:02:37.189Z,6.45
2023-05-20T13:06:44.998Z,6.28
2023-05-20T13:10:49.322Z,8.73
2023-05-20T13:14:54.604Z,5.18
2023-05-20T13:18:57.835Z,8.57
2023-05-20T13:23:02.974Z,6.13
2023-05-20T13:27:07.026Z,9.00
2023-05-20T13:31:10.456Z,6.55
2023-05-20T13:35:15.051Z,6.38
2023-05-20T13:39:19.887Z,10.65
2023-05-20T13:43:23.125Z,7.63
2023-05-20T13:47:26.419Z,7.05
2023-05-20T13:51:29.494Z,6.65
2023-05-20T13:55:34.459Z,6.82
2023-05-20T13:59:38.128Z,9.95
2023-05-20T14:03:42.963Z,7.28
2023-05-20T14:07:46.641Z,7.72
2023-05-20T14:12:00.714Z,11.10
2023-05-20T14:16:06.823Z,11.23
2023-05-20T14:20:11.337Z,11.10
2023-05-20T14:24:14.511Z,10.77
2023-05-20T14:28:19.212Z,8.75
2023-05-20T14:32:22.864Z,12.20
2023-05-20T14:36:27.935Z,8.80
2023-05-20T14:40:31.946Z,7.28
2023-05-20T14:44:39.636Z,5.25
2023-05-20T14:48:43.078Z,6.68
2023-05-20T14:52:46.955Z,14.05
2023-05-20T14:56:50.268Z,7.45
2023-05-20T15:00:56.287Z,9.48
2023-05-20T15:04:59.903Z,6.90
2023-05-20T15:09:03.916Z,7.32
2023-05-20T15:13:07.318Z,8.32
2023-05-20T15:17:14.190Z,7.90
2023-05-20T15:21:18.128Z,9.15
2023-05-20T15:25:21.714Z,6.20
2023-05-20T15:29:24.828Z,7.25
2023-05-20T15:33:30.902Z,8.85
2023-05-20T15:37:34.002Z,7.65
2023-05-20T15:41:40.415Z,10.38
2023-05-20T15:45:44.085Z,11.10
2023-05-20T15:49:49.756Z,6.22
2023-05-20T15:53:54.459Z,7.57
2023-05-20T15:57:57.472Z,9.02
2023-05-20T16:02:04.035Z,6.47
2023-05-20T16:06:11.828Z,7.40
2023-05-20T16:10:15.259Z,7.50
2023-05-20T16:14:18.265Z,6.55
2023-05-20T16:18:21.745Z,6.10
2023-05-20T16:22:27.093Z,8.32
2023-05-20T16:26:31.611Z,5.15
2023-05-20T16:30:37.493Z,5.53
2023-05-20T16:34:40.852Z,7.07
2023-05-20T16:38:45.639Z,8.65
2023-05-20T16:42:51.122Z,11.77
2023-05-20T16:46:54.593Z,5.30
2023-05-20T16:50:57.820Z,5.30
2023-05-20T16:55:04.823Z,7.72
2023-05-20T16:59:08.210Z,5.50
2023-05-20T17:03:12.183Z,7.63
2023-05-20T17:07:15.558Z,7.28
2023-05-20T17:11:23.453Z,8.40
2023-05-20T17:15:26.824Z,7.28
2023-05-20T17:19:30.550Z,6.20
2023-05-20T17:23:33.689Z,6.22
2023-05-20T17:27:40.832Z,7.72
2023-05-20T17:31:45.238Z,7.10
2023-05-20T17:35:49.433Z,7.28
2023-05-20T17:39:56.632Z,4.85
2023-05-20T17:44:02.313Z,6.25
2023-05-20T17:48:08.846Z,7.95
2023-05-20T17:52:14.923Z,7.43
2023-05-20T17:56:19.349Z,7.72
2023-05-20T18:00:24.205Z,6.35
2023-05-20T18:04:28.369Z,5.55
2023-05-20T18:08:35.181Z,5.00
2023-05-20T18:12:38.487Z,14.68
2023-05-20T18:16:42.928Z,6.90
2023-05-20T18:20:47.010Z,8.75
2023-05-20T18:24:50.344Z,8.13
2023-05-20T18:28:53.407Z,10.82
2023-05-20T18:32:59.125Z,6.93
2023-05-20T18:37:04.590Z,8.75
2023-05-20T18:41:08.049Z,5.93
2023-05-20T18:45:13.035Z,7.57
2023-05-20T18:49:20.649Z,6.05
2023-05-20T18:53:24.462Z,9.00
2023-05-20T18:57:28.624Z,7.63
2023-05-20T19:01:34.021Z,6.05
2023-05-20T19:05:39.462Z,9.10
2023-05-20T19:09:43.641Z,9.00
2023-05-20T19:13:46.958Z,7.03
2023-05-20T19:17:50.372Z,7.32
2023-05-20T19:21:56.729Z,8.65
2023-05-20T19:25:59.799Z,5.80
2023-05-20T19:30:03.775Z,8.35
2023-05-20T19:34:09.151Z,6.43
2023-05-20T19:38:14.003Z,9.38
2023-05-20T19:42:17.824Z,12.23
2023-05-20T19:46:23.531Z,7.82
2023-05-20T19:50:26.760Z,11.75
2023-05-20T19:54:31.701Z,8.55
2023-05-20T19:58:37.597Z,9.82
2023-05-20T20:02:42.144Z,7.15
2023-05-20T20:06:45.732Z,8.77
2023-05-20T20:10:51.147Z,9.68
2023-05-20T20:14:56.641Z,8.75
2023-05-20T20:19:02.393Z,8.43
2023-05-20T20:23:05.947Z,8.57
2023-05-20T20:27:10.853Z,9.98
2023-05-20T20:31:16.615Z,7.60
2023-05-20T20:35:22.767Z,6.72
2023-05-20T20:39:26.111Z,7.53
2023-05-20T20:43:37.433Z,9.00
2023-05-20T20:47:41.166Z,8.00
2023-05-20T20:51:44.392Z,6.55
2023-05-20T20:55:47.737Z,6.03
2023-05-20T20:59:58.029Z,7.95
2023-05-20T21:04:01.394Z,9.05
2023-05-20T21:08:05.377Z,9.25
2023-05-20T21:12:09.718Z,8.85
2023-05-20T21:16:15.066Z,7.25
2023-05-20T21:20:21.257Z,7.70
2023-05-20T21:24:25.075Z,6.25
2023-05-20T21:28:28.233Z,8.45
2023-05-20T21:32:34.174Z,5.53
2023-05-20T21:36:37.597Z,6.35
2023-05-20T21:40:41.333Z,8.95
2023-05-20T21:44:47.931Z,4.05
2023-05-20T21:48:52.273Z,13.18
2023-05-20T21:52:59.200Z,6.05
2023-05-20T21:57:05.289Z,8.68
2023-05-20T22:01:10.484Z,5.90
2023-05-20T22:05:15.794Z,7.35
2023-05-20T22:09:19.454Z,8.27
2023-05-20T22:13:26.653Z,6.20
2023-05-20T22:17:31.467Z,5.38
2023-05-20T22:21:46.380Z,5.40
2023-05-20T22:25:52.581Z,4.93
2023-05-20T22:29:55.968Z,7.43
2023-05-20T22:34:05.312Z,5.18
2023-05-20T22:38:10.249Z,7.80
2023-05-20T22:42:13.376Z,10.15
2023-05-20T22:46:16.737Z,7.45
2023-05-20T22:50:20.114Z,11.68
2023-05-20T22:54:25.138Z,10.55
2023-05-20T22:58:30.084Z,10.23
2023-05-20T23:02:33.222Z,14.40
2023-05-20T23:06:39.435Z,12.65
2023-05-20T23:15:05.179Z,17.85
2023-05-20T23:19:08.907Z,15.65
2023-05-20T23:23:15.170Z,14.95
2023-05-20T23:27:19.995Z,12.80
2023-05-20T23:31:24.201Z,15.40
2023-05-20T23:35:27.129Z,15.75
2023-05-20T23:39:30.582Z,18.55
2023-05-20T23:43:35.353Z,17.30
2023-05-20T23:47:39.019Z,17.25
2023-05-20T23:51:42.849Z,19.63
2023-05-20T23:55:49.849Z,16.15
2023-05-20T23:59:55.690Z,19.65
